Time;durP1;ratioP1;P1;durP2;ratioP2;P2;SDS_P1;SDS_P2;PMS_P1;PMS_P2;Temp;Humidity;BMP_temperature;BMP_pressure;BME280_temperature;BME280_humidity;BME280_pressure;Samples;Min_cycle;Max_cycle;Signal;HPM_P1;HPM_P2
2022/01/21 00:00:15;;;;;;;11.13;2.23;;;0.00;99.90;;;;;;4864695;29;20053;-87
2022/01/21 00:02:41;;;;;;;13.23;2.30;;;0.00;99.90;;;;;;4863705;29;20049;-86
2022/01/21 00:05:07;;;;;;;14.87;2.50;;;0.00;99.90;;;;;;4864583;29;20049;-87
2022/01/21 00:07:33;;;;;;;31.13;10.23;;;0.10;99.90;;;;;;4875582;29;20065;-84
2022/01/21 00:09:58;;;;;;;30.90;11.97;;;0.50;99.90;;;;;;4888629;29;20049;-84
2022/01/21 00:12:27;;;;;;;23.40;8.63;;;0.10;99.90;;;;;;4879293;29;20473;-86
2022/01/21 00:14:52;;;;;;;20.97;6.53;;;0.90;99.90;;;;;;4879041;29;20060;-87
2022/01/21 00:17:21;;;;;;;19.23;5.87;;;0.10;99.90;;;;;;4879357;29;20456;-86
2022/01/21 00:19:49;;;;;;;16.07;3.83;;;0.80;99.90;;;;;;4878686;29;20049;-87
2022/01/21 00:30:46;;;;;;;18.13;3.20;;;0.40;99.90;;;;;;4862332;29;20060;-87
2022/01/21 00:33:12;;;;;;;15.73;2.93;;;0.40;99.90;;;;;;4871135;29;20464;-86
2022/01/21 00:35:38;;;;;;;17.60;3.03;;;0.40;99.90;;;;;;4879579;29;20041;-84
2022/01/21 00:38:03;;;;;;;14.60;3.03;;;0.40;99.90;;;;;;4880082;29;20084;-84
2022/01/21 00:40:30;;;;;;;16.57;3.17;;;0.60;99.90;;;;;;4879079;29;20319;-84
2022/01/21 00:43:56;;;;;;;13.37;2.33;;;0.30;99.90;;;;;;4879331;29;20053;-85
2022/01/21 00:45:51;;;;;;;18.07;2.93;;;0.30;99.90;;;;;;4888642;29;20037;-84
2022/01/21 00:48:16;;;;;;;15.30;2.53;;;0.30;99.90;;;;;;4880546;29;20057;-85
2022/01/21 00:50:42;;;;;;;10.97;2.30;;;0.20;99.90;;;;;;4878561;29;20095;-86
2022/01/21 00:53:07;;;;;;;17.70;3.00;;;0.30;99.90;;;;;;4879392;29;20442;-86
2022/01/21 00:55:33;;;;;;;16.30;2.80;;;1.30;99.90;;;;;;4880079;29;20579;-86
2022/01/21 00:57:59;;;;;;;15.13;2.77;;;0.30;99.90;;;;;;4878613;29;20068;-86
2022/01/21 01:00:25;;;;;;;12.27;2.30;;;0.40;99.90;;;;;;4878579;29;20056;-85
2022/01/21 01:02:50;;;;;;;19.40;2.97;;;0.40;99.90;;;;;;4881978;29;20066;-86
2022/01/21 01:05:19;;;;;;;16.57;3.40;;;0.70;99.90;;;;;;4879736;29;20776;-86
2022/01/21 01:07:48;;;;;;;15.50;2.93;;;0.50;99.90;;;;;;4878175;29;20089;-86
2022/01/21 01:10:22;;;;;;;16.10;3.20;;;0.50;99.90;;;;;;4878366;29;20089;-86
2022/01/21 01:12:59;;;;;;;15.27;2.80;;;0.50;99.90;;;;;;4878343;29;20077;-86
2022/01/21 01:21:10;;;;;;;13.30;2.53;;;0.50;99.90;;;;;;4876829;29;20084;-86
2022/01/21 01:23:59;;;;;;;30.23;4.00;;;0.50;99.90;;;;;;4885378;29;20105;-85
2022/01/21 01:29:08;;;;;;;;;;;2.00;99.90;;;;;;4880048;29;20053;-85
2022/01/21 01:31:33;;;;;;;14.10;2.37;;;0.70;99.90;;;;;;4878322;29;20291;-85
2022/01/21 01:34:01;;;;;;;14.53;2.50;;;0.70;99.90;;;;;;4877676;29;20456;-85
2022/01/21 01:36:28;;;;;;;15.80;2.90;;;0.70;99.90;;;;;;4878319;29;20055;-85
2022/01/21 01:41:37;;;;;;;12.93;2.10;;;0.80;99.90;;;;;;4876998;29;20053;-85
2022/01/21 01:49:37;;;;;;;10.98;2.25;;;0.90;99.90;;;;;;4878178;29;20081;-85
2022/01/21 01:52:06;;;;;;;13.43;2.03;;;0.90;99.90;;;;;;4878679;29;20053;-84
2022/01/21 01:54:34;;;;;;;12.07;1.87;;;0.90;99.90;;;;;;4877151;29;20048;-84
2022/01/21 01:56:59;;;;;;;12.90;1.70;;;2.20;99.90;;;;;;4879735;29;20056;-84
2022/01/21 01:59:26;;;;;;;12.77;2.40;;;1.80;99.90;;;;;;4891406;29;20044;-84
2022/01/21 02:01:54;;;;;;;12.30;1.90;;;1.20;99.90;;;;;;4879236;29;20053;-85
2022/01/21 02:04:20;;;;;;;10.37;1.93;;;1.00;99.90;;;;;;4878094;29;20496;-85
2022/01/21 02:06:45;;;;;;;12.73;1.93;;;1.50;99.90;;;;;;4878175;29;20061;-85
2022/01/21 02:09:11;;;;;;;12.13;2.53;;;1.00;99.90;;;;;;4878228;29;20056;-86
2022/01/21 02:11:37;;;;;;;13.43;2.30;;;1.00;99.90;;;;;;4878125;29;20088;-85
2022/01/21 02:14:08;;;;;;;9.33;1.73;;;1.00;99.90;;;;;;4878255;29;20049;-84
2022/01/21 02:16:44;;;;;;;10.20;1.90;;;1.00;99.90;;;;;;4878181;29;20076;-85
2022/01/21 02:21:53;;;;;;;17.52;2.53;;;0.90;99.90;;;;;;4877042;29;20080;-85
2022/01/21 02:24:28;;;;;;;9.80;2.03;;;0.90;99.90;;;;;;4878301;29;20088;-85
2022/01/21 02:26:54;;;;;;;16.73;2.47;;;1.20;99.90;;;;;;4878850;29;20051;-85
2022/01/21 02:29:31;;;;;;;15.73;2.30;;;1.80;99.90;;;;;;4878147;29;20124;-85
2022/01/21 02:31:59;;;;;;;17.23;2.93;;;2.10;99.90;;;;;;4878190;29;20109;-85
2022/01/21 02:34:25;;;;;;;14.47;2.50;;;0.90;99.90;;;;;;4882091;29;20166;-85
2022/01/21 02:36:52;;;;;;;13.40;2.30;;;0.80;99.90;;;;;;4878650;29;20045;-86
2022/01/21 02:39:17;;;;;;;13.50;2.40;;;1.80;99.90;;;;;;4877799;29;20078;-86
2022/01/21 02:41:43;;;;;;;14.57;3.50;;;1.10;99.90;;;;;;4878292;29;20085;-85
2022/01/21 02:44:14;;;;;;;9.77;2.00;;;1.40;99.90;;;;;;4879692;29;20037;-85
2022/01/21 02:46:41;;;;;;;11.27;2.77;;;0.60;99.90;;;;;;4881560;29;20056;-85
2022/01/21 02:49:08;;;;;;;15.93;2.30;;;2.00;99.90;;;;;;4882586;29;20045;-85
2022/01/21 02:51:35;;;;;;;18.10;2.20;;;0.50;99.90;;;;;;4880563;29;20063;-85
2022/01/21 02:54:04;;;;;;;12.53;2.40;;;0.50;99.90;;;;;;4881607;29;20057;-85
2022/01/21 02:56:31;;;;;;;12.53;2.23;;;1.70;99.90;;;;;;4881076;29;20049;-85
2022/01/21 02:58:57;;;;;;;15.53;2.97;;;1.10;99.90;;;;;;4882048;29;20053;-85
2022/01/21 03:01:24;;;;;;;18.03;2.47;;;0.60;99.90;;;;;;4880869;29;20497;-85
2022/01/21 03:03:50;;;;;;;17.13;3.37;;;1.10;99.90;;;;;;4880645;29;20052;-84
2022/01/21 03:06:19;;;;;;;12.27;2.03;;;0.70;99.90;;;;;;4879832;29;20108;-84
2022/01/21 03:08:46;;;;;;;16.67;3.10;;;0.70;99.90;;;;;;4881036;29;20057;-84
2022/01/21 03:11:12;;;;;;;12.83;2.63;;;2.10;99.90;;;;;;4895435;29;20111;-84
2022/01/21 03:13:40;;;;;;;13.17;2.07;;;1.60;99.90;;;;;;4881105;29;20522;-84
2022/01/21 03:16:06;;;;;;;13.30;2.20;;;0.80;99.90;;;;;;4880882;29;20097;-84
2022/01/21 03:18:31;;;;;;;9.57;1.87;;;2.00;99.90;;;;;;4880832;29;20049;-84
2022/01/21 03:20:58;;;;;;;11.77;1.80;;;1.60;99.90;;;;;;4881859;29;20052;-84
2022/01/21 03:23:26;;;;;;;13.97;1.93;;;0.90;99.90;;;;;;4881607;29;20053;-84
2022/01/21 03:25:52;;;;;;;14.13;3.00;;;0.90;99.90;;;;;;4879927;29;20059;-85
2022/01/21 03:28:18;;;;;;;11.93;1.80;;;1.40;99.90;;;;;;4880617;29;20048;-84
2022/01/21 03:30:44;;;;;;;13.27;1.70;;;0.80;99.90;;;;;;4880725;29;20041;-84
2022/01/21 03:33:09;;;;;;;9.97;2.00;;;0.90;99.90;;;;;;4879967;29;20060;-84
2022/01/21 03:35:36;;;;;;;7.13;1.50;;;1.90;99.90;;;;;;4880326;29;20053;-85
2022/01/21 03:38:01;;;;;;;10.33;2.00;;;1.80;99.90;;;;;;4880926;29;20125;-85
2022/01/21 03:40:27;;;;;;;11.30;2.10;;;1.00;99.90;;;;;;4879846;29;20478;-84
2022/01/21 03:42:53;;;;;;;12.53;2.10;;;2.20;99.90;;;;;;4880613;29;20045;-85
2022/01/21 03:45:18;;;;;;;13.23;1.80;;;1.70;99.90;;;;;;4882201;29;20049;-84
2022/01/21 03:47:45;;;;;;;13.30;2.20;;;1.00;99.90;;;;;;4896843;29;20053;-84
2022/01/21 03:52:55;;;;;;;11.87;1.50;;;0.90;99.90;;;;;;4880366;29;20085;-84
2022/01/21 03:55:21;;;;;;;9.53;2.00;;;1.00;99.90;;;;;;4878870;29;20093;-85
2022/01/21 03:57:47;;;;;;;14.53;2.23;;;1.70;99.90;;;;;;4880382;29;20095;-84
2022/01/21 04:00:28;;;;;;;9.77;1.60;;;1.30;99.90;;;;;;4878576;29;20045;-85
2022/01/21 04:02:53;;;;;;;10.03;1.83;;;1.00;99.90;;;;;;4880111;29;20128;-85
2022/01/21 04:05:19;;;;;;;10.77;1.67;;;1.00;99.90;;;;;;4880234;29;20140;-84
2022/01/21 04:07:46;;;;;;;9.80;2.07;;;1.00;99.90;;;;;;4879039;29;20462;-84
2022/01/21 04:10:12;;;;;;;9.07;1.80;;;1.10;99.90;;;;;;4880935;29;20131;-85
2022/01/21 04:12:37;;;;;;;11.53;1.77;;;2.40;99.90;;;;;;4879537;29;20136;-84
2022/01/21 04:15:04;;;;;;;9.10;1.90;;;1.10;99.90;;;;;;4879625;29;20064;-85
2022/01/21 04:17:30;;;;;;;10.33;2.23;;;1.10;99.90;;;;;;4879970;29;20091;-84
2022/01/21 04:19:56;;;;;;;10.17;1.80;;;1.10;99.90;;;;;;4880398;29;20470;-84
2022/01/21 04:22:21;;;;;;;7.60;1.47;;;1.10;99.90;;;;;;4886070;29;20032;-85
2022/01/21 04:24:49;;;;;;;9.37;1.50;;;1.10;99.90;;;;;;4889292;29;20132;-85
2022/01/21 04:27:16;;;;;;;12.83;2.27;;;1.10;99.90;;;;;;4879583;29;20048;-85
2022/01/21 04:29:42;;;;;;;13.60;1.77;;;1.00;99.90;;;;;;4879192;29;20077;-85
2022/01/21 04:32:08;;;;;;;7.77;1.60;;;1.00;99.90;;;;;;4879835;29;20136;-85
2022/01/21 04:34:34;;;;;;;9.73;2.13;;;0.90;99.90;;;;;;4879240;29;20074;-85
2022/01/21 04:37:01;;;;;;;9.47;1.50;;;1.00;99.90;;;;;;4878511;29;20149;-85
2022/01/21 04:39:32;;;;;;;11.53;1.67;;;0.90;99.90;;;;;;4880661;29;20036;-85
2022/01/21 04:47:26;;;;;;;10.48;2.13;;;0.90;99.90;;;;;;4879137;29;20053;-85
2022/01/21 04:49:52;;;;;;;11.93;2.00;;;0.90;99.90;;;;;;4880743;29;20442;-85
2022/01/21 04:52:30;;;;;;;8.97;1.50;;;0.80;99.90;;;;;;4880088;29;20044;-84
2022/01/21 04:54:55;;;;;;;8.47;1.37;;;1.90;99.90;;;;;;4879522;29;20082;-85
2022/01/21 04:57:21;;;;;;;13.60;1.83;;;0.70;99.90;;;;;;4878065;29;20053;-85
2022/01/21 04:59:47;;;;;;;11.43;1.73;;;0.80;99.90;;;;;;4892721;29;20049;-85
2022/01/21 05:02:13;;;;;;;12.50;2.00;;;0.80;99.90;;;;;;4881242;29;20085;-85
2022/01/21 05:04:39;;;;;;;10.20;2.10;;;0.90;99.90;;;;;;4878295;29;20076;-85
2022/01/21 05:07:07;;;;;;;13.37;1.83;;;1.80;99.90;;;;;;4877771;29;20462;-85
2022/01/21 05:09:35;;;;;;;10.57;1.70;;;0.90;99.90;;;;;;4879887;29;20136;-85
2022/01/21 05:12:07;;;;;;;12.20;1.97;;;0.90;99.90;;;;;;4879600;29;20132;-85
2022/01/21 05:14:46;;;;;;;10.07;1.70;;;0.90;99.90;;;;;;4878672;29;20053;-85
2022/01/21 05:17:13;;;;;;;10.00;1.90;;;0.90;99.90;;;;;;4878389;29;20124;-85
2022/01/21 05:19:39;;;;;;;8.87;1.80;;;0.80;99.90;;;;;;4879754;29;20073;-85
2022/01/21 05:22:05;;;;;;;10.20;1.90;;;0.80;99.90;;;;;;4878913;29;20048;-85
2022/01/21 05:24:31;;;;;;;8.43;1.60;;;0.70;99.90;;;;;;4878678;29;20045;-85
2022/01/21 05:26:58;;;;;;;13.60;2.30;;;0.70;99.90;;;;;;4878975;29;20410;-84
2022/01/21 05:29:29;;;;;;;14.33;2.53;;;0.70;99.90;;;;;;4878426;29;20055;-85
2022/01/21 05:31:55;;;;;;;10.90;1.93;;;0.70;99.90;;;;;;4877856;29;20053;-85
2022/01/21 05:34:21;;;;;;;11.83;1.97;;;0.70;99.90;;;;;;4882777;29;20049;-84
2022/01/21 05:36:47;;;;;;;11.07;2.30;;;0.60;99.90;;;;;;4892596;29;20402;-85
2022/01/21 05:39:15;;;;;;;16.43;2.57;;;0.60;99.90;;;;;;4878225;29;20086;-85
2022/01/21 05:41:45;;;;;;;12.93;2.27;;;0.60;99.90;;;;;;4878681;29;20481;-86
2022/01/21 05:46:22;;;;;;;18.27;2.30;;;0.60;99.90;;;;;;4879239;29;20066;-86
2022/01/21 05:47:03;;;;;;;12.27;2.27;;;0.60;99.90;;;;;;4879063;29;20061;-86
2022/01/21 05:49:31;;;;;;;9.77;1.70;;;0.60;99.90;;;;;;4879363;29;20092;-85
2022/01/21 05:52:07;;;;;;;13.40;2.50;;;0.60;99.90;;;;;;4878335;29;20556;-85
2022/01/21 05:54:33;;;;;;;11.97;2.60;;;0.60;99.90;;;;;;4878929;29;20063;-86
2022/01/21 05:57:02;;;;;;;16.50;2.30;;;0.60;99.90;;;;;;4879013;29;20113;-86
2022/01/21 05:59:27;;;;;;;8.97;2.03;;;0.60;99.90;;;;;;4877603;29;20134;-85
2022/01/21 06:01:53;;;;;;;16.70;2.77;;;0.50;99.90;;;;;;4878392;29;20057;-85
2022/01/21 06:04:19;;;;;;;10.07;2.10;;;1.60;99.90;;;;;;4878356;29;20049;-85
2022/01/21 06:06:44;;;;;;;12.10;2.20;;;0.50;99.90;;;;;;4877044;29;20057;-85
2022/01/21 06:09:10;;;;;;;12.93;2.20;;;0.40;99.90;;;;;;4878391;29;20053;-86
2022/01/21 06:11:36;;;;;;;11.27;1.90;;;0.40;99.90;;;;;;4889238;29;20077;-85
2022/01/21 06:14:03;;;;;;;13.00;2.27;;;0.40;99.90;;;;;;4883171;29;20144;-86
2022/01/21 06:16:29;;;;;;;12.87;2.83;;;1.80;99.90;;;;;;4877952;29;20053;-85
2022/01/21 06:18:55;;;;;;;14.57;2.30;;;0.30;99.90;;;;;;4880895;29;20045;-85
2022/01/21 06:21:21;;;;;;;13.20;1.87;;;0.30;99.90;;;;;;4882335;29;20052;-85
2022/01/21 06:23:47;;;;;;;16.73;2.40;;;0.30;99.90;;;;;;4883185;29;20111;-85
2022/01/21 06:26:12;;;;;;;16.43;2.40;;;0.30;99.90;;;;;;4881742;29;20493;-85
2022/01/21 06:28:38;;;;;;;16.57;2.53;;;0.30;99.90;;;;;;4881433;29;20061;-86
2022/01/21 06:31:04;;;;;;;12.27;2.17;;;0.40;99.90;;;;;;4881943;29;20136;-85
2022/01/21 06:33:30;;;;;;;12.93;2.50;;;0.50;99.90;;;;;;4881539;29;20101;-85
2022/01/21 06:35:55;;;;;;;16.13;2.70;;;0.50;99.90;;;;;;4882069;29;20101;-85
2022/01/21 06:38:22;;;;;;;13.77;2.40;;;0.60;99.90;;;;;;4881384;29;20057;-85
2022/01/21 06:40:48;;;;;;;14.53;2.40;;;0.50;99.90;;;;;;4882271;29;20486;-86
2022/01/21 06:43:15;;;;;;;12.33;2.30;;;0.70;99.90;;;;;;4881874;29;20083;-85
2022/01/21 06:45:41;;;;;;;14.87;2.43;;;0.60;99.90;;;;;;4883283;29;20033;-85
2022/01/21 06:48:07;;;;;;;10.90;1.90;;;0.60;99.90;;;;;;4897491;29;20067;-85
2022/01/21 06:50:37;;;;;;;12.00;2.23;;;0.60;99.90;;;;;;4884042;29;20053;-85
2022/01/21 06:53:03;;;;;;;18.07;2.37;;;0.50;99.90;;;;;;4880502;29;20523;-85
2022/01/21 06:55:28;;;;;;;16.47;2.97;;;0.60;99.90;;;;;;4880979;29;20127;-85
2022/01/21 06:57:54;;;;;;;14.93;2.37;;;0.60;99.90;;;;;;4881604;29;20041;-85
2022/01/21 07:00:20;;;;;;;10.87;2.00;;;0.70;99.90;;;;;;4883054;29;20049;-85
2022/01/21 07:02:47;;;;;;;16.43;2.70;;;0.60;99.90;;;;;;4880744;29;20404;-85
2022/01/21 07:05:13;;;;;;;13.43;2.43;;;0.60;99.90;;;;;;4880798;29;20057;-85
2022/01/21 07:07:39;;;;;;;13.37;2.03;;;0.60;99.90;;;;;;4880656;29;20482;-85
2022/01/21 07:10:07;;;;;;;13.07;2.70;;;0.70;99.90;;;;;;4881070;29;20115;-86
2022/01/21 07:12:33;;;;;;;12.57;2.17;;;0.70;99.90;;;;;;4880542;29;20421;-85
2022/01/21 07:14:59;;;;;;;12.57;1.90;;;0.80;99.90;;;;;;4881401;29;20059;-86
2022/01/21 07:17:25;;;;;;;11.20;2.03;;;0.60;99.90;;;;;;4895392;29;20136;-86
2022/01/21 07:19:50;;;;;;;13.17;2.20;;;1.10;99.90;;;;;;4881304;29;20045;-89
2022/01/21 07:25:22;;;;;;;13.20;2.20;;;0.70;99.90;;;;;;4842956;29;20114;-91
2022/01/21 07:27:48;;;;;;;13.90;1.90;;;0.50;99.90;;;;;;4869646;29;20106;-89
2022/01/21 07:30:29;;;;;;;12.07;2.13;;;2.00;99.90;;;;;;4865903;29;20052;-92
2022/01/21 07:34:06;;;;;;;13.53;2.27;;;0.40;99.90;;;;;;4872543;23;20085;-93
2022/01/21 07:37:22;;;;;;;13.13;2.67;;;0.50;99.90;;;;;;4866163;29;20223;-90
2022/01/21 07:40:39;;;;;;;14.00;2.20;;;1.00;99.90;;;;;;4866603;29;20057;-93
2022/01/21 07:43:05;;;;;;;14.13;2.10;;;0.70;99.90;;;;;;4865287;29;20057;-90
2022/01/21 07:45:41;;;;;;;17.50;3.20;;;0.40;99.90;;;;;;4868406;23;20413;-91
2022/01/21 07:48:07;;;;;;;13.73;3.03;;;2.20;99.90;;;;;;4862626;29;20061;-92
2022/01/21 07:50:35;;;;;;;10.27;2.00;;;1.60;99.90;;;;;;4862407;29;20409;-91
2022/01/21 07:53:16;;;;;;;10.40;2.50;;;2.80;99.90;;;;;;4871324;23;20509;-92
2022/01/21 08:00:34;;;;;;;15.83;6.17;;;-0.10;99.90;;;;;;4880169;29;20060;-87
2022/01/21 08:03:00;;;;;;;12.57;3.13;;;0.90;99.90;;;;;;4859528;29;20128;-87
2022/01/21 08:05:37;;;;;;;12.47;2.30;;;0.40;99.90;;;;;;4853874;29;20133;-86
2022/01/21 08:08:13;;;;;;;16.93;2.70;;;0.60;99.90;;;;;;4855681;29;20049;-84
2022/01/21 08:10:38;;;;;;;11.13;2.50;;;0.70;99.90;;;;;;4882497;29;20068;-94
2022/01/21 08:13:04;;;;;;;17.93;5.77;;;1.20;99.90;;;;;;4864150;29;20107;-87
2022/01/21 08:15:45;;;;;;;15.10;4.37;;;0.40;99.90;;;;;;4864220;29;20049;-87
2022/01/21 08:18:20;;;;;;;14.07;2.97;;;1.50;99.90;;;;;;4864814;29;20510;-88
2022/01/21 08:21:04;;;;;;;10.77;1.87;;;0.80;99.90;;;;;;4865089;29;20160;-88
2022/01/21 08:23:36;;;;;;;13.07;2.97;;;0.70;99.90;;;;;;4864142;29;20096;-88
2022/01/21 08:26:02;;;;;;;15.60;2.23;;;0.60;99.90;;;;;;4862917;29;20143;-87
2022/01/21 08:28:34;;;;;;;17.73;8.50;;;0.50;99.90;;;;;;4862165;29;20128;-87
2022/01/21 08:31:14;;;;;;;14.03;3.47;;;0.60;99.90;;;;;;4862948;29;20053;-87
2022/01/21 08:33:56;;;;;;;21.97;4.60;;;0.40;99.90;;;;;;4864309;29;20085;-87
2022/01/21 08:36:28;;;;;;;12.10;2.43;;;0.60;99.90;;;;;;4888195;29;20096;-87
2022/01/21 08:39:06;;;;;;;11.37;2.27;;;0.50;99.90;;;;;;4868247;29;20053;-87
2022/01/21 08:41:35;;;;;;;11.50;2.57;;;0.70;99.90;;;;;;4862896;29;20168;-88
2022/01/21 08:44:13;;;;;;;14.37;2.60;;;0.90;99.90;;;;;;4864500;29;20135;-88
2022/01/21 08:49:38;;;;;;;13.63;2.17;;;1.00;99.90;;;;;;4984479;23;20101;-90
2022/01/21 08:55:30;;;;;;;11.43;2.80;;;1.20;99.90;;;;;;4899194;29;20040;-89
2022/01/21 08:57:55;;;;;;;12.67;2.60;;;1.50;99.90;;;;;;4863492;29;20061;-89
2022/01/21 09:00:36;;;;;;;10.90;2.03;;;1.30;99.90;;;;;;4862232;29;20514;-89
2022/01/21 09:03:17;;;;;;;14.33;3.07;;;1.20;99.90;;;;;;4863066;29;20055;-90
2022/01/21 09:05:50;;;;;;;10.30;1.83;;;1.40;99.90;;;;;;4863697;29;20127;-90
2022/01/21 09:08:24;;;;;;;14.85;3.03;;;1.20;99.90;;;;;;4863826;29;20073;-89
2022/01/21 09:10:53;;;;;;;14.93;2.65;;;2.90;99.90;;;;;;4863305;29;20413;-90
2022/01/21 09:13:41;;;;;;;12.37;2.33;;;1.70;99.90;;;;;;4878013;29;20181;-89
2022/01/21 09:16:25;;;;;;;12.83;2.93;;;2.20;99.90;;;;;;4867316;29;20053;-90
2022/01/21 09:18:54;;;;;;;13.20;2.30;;;2.00;99.90;;;;;;4895285;29;20044;-90
2022/01/21 09:21:28;;;;;;;11.27;2.30;;;1.90;99.90;;;;;;4863799;29;20087;-90
2022/01/21 09:24:13;;;;;;;14.53;2.47;;;2.10;99.90;;;;;;4866847;29;20075;-90
2022/01/21 09:26:51;;;;;;;11.73;2.30;;;2.00;99.90;;;;;;4898269;29;20057;-90
2022/01/21 09:29:17;;;;;;;12.50;2.60;;;3.70;99.90;;;;;;4878883;29;20052;-91
2022/01/21 09:34:46;;;;;;;12.87;2.90;;;2.40;99.90;;;;;;4807319;29;20062;-91
2022/01/21 09:37:12;;;;;;;11.30;3.43;;;2.20;99.90;;;;;;4808881;29;20061;-89
2022/01/21 09:39:50;;;;;;;15.70;2.70;;;2.20;99.90;;;;;;4808429;29;20055;-89
2022/01/21 09:42:20;;;;;;;17.50;2.50;;;2.80;99.90;;;;;;4809720;29;20137;-92
2022/01/21 09:44:59;;;;;;;12.33;2.70;;;2.40;99.90;;;;;;4807589;29;20399;-88
2022/01/21 09:47:49;;;;;;;13.80;3.43;;;2.30;99.90;;;;;;4824112;29;20411;-91
2022/01/21 09:50:17;;;;;;;17.40;3.07;;;2.50;99.90;;;;;;4820456;29;20054;-90
2022/01/21 09:52:53;;;;;;;11.80;2.43;;;2.50;99.90;;;;;;4806392;29;20042;-87
2022/01/21 09:55:23;;;;;;;15.97;3.20;;;2.50;99.90;;;;;;4808170;29;20058;-90
2022/01/21 09:57:56;;;;;;;11.90;2.90;;;2.60;99.90;;;;;;4832359;23;20101;-90
2022/01/21 10:00:27;;;;;;;13.80;3.10;;;2.50;99.90;;;;;;4862925;29;20053;-91
2022/01/21 10:03:05;;;;;;;17.87;3.73;;;3.80;99.90;;;;;;4863566;29;20041;-92
2022/01/21 10:05:43;;;;;;;22.47;3.73;;;2.60;99.90;;;;;;4863349;29;20107;-92
2022/01/21 10:08:21;;;;;;;16.23;2.70;;;2.60;99.90;;;;;;4867057;23;20050;-91
2022/01/21 10:11:02;;;;;;;14.73;2.80;;;2.70;99.90;;;;;;4860786;29;20061;-91
2022/01/21 10:13:35;;;;;;;15.50;2.77;;;3.30;99.90;;;;;;4860176;29;20045;-91
2022/01/21 10:16:17;;;;;;;15.68;2.50;;;2.60;99.90;;;;;;4860110;29;20490;-92
2022/01/21 10:19:15;;;;;;;14.47;2.87;;;2.50;99.90;;;;;;4865522;23;20101;-91
2022/01/21 10:21:57;;;;;;;12.57;2.63;;;3.70;99.90;;;;;;4851768;29;20041;-91
2022/01/21 10:24:24;;;;;;;12.87;2.47;;;3.00;99.90;;;;;;4862646;29;20049;-91
2022/01/21 10:26:53;;;;;;;17.33;2.70;;;2.20;99.90;;;;;;4864469;29;20045;-91
2022/01/21 10:29:23;;;;;;;15.87;2.90;;;3.00;99.90;;;;;;4869866;29;20041;-90
2022/01/21 10:32:08;;;;;;;17.67;2.97;;;3.00;99.90;;;;;;4853431;29;20454;-90
2022/01/21 10:34:49;;;;;;;14.07;2.60;;;3.20;99.90;;;;;;4868598;29;20137;-89
2022/01/21 10:37:36;;;;;;;14.10;2.70;;;4.20;99.90;;;;;;4871535;29;20516;-92
2022/01/21 10:40:11;;;;;;;14.70;2.53;;;3.10;99.90;;;;;;4844752;29;20041;-90
2022/01/21 10:42:50;;;;;;;13.33;2.50;;;3.50;99.90;;;;;;4844539;29;20050;-92
2022/01/21 10:45:36;;;;;;;16.93;3.40;;;3.20;99.90;;;;;;4844462;29;20046;-92
2022/01/21 10:48:11;;;;;;;14.63;3.20;;;5.00;99.90;;;;;;4826307;29;20148;-93
2022/01/21 10:51:25;;;;;;;13.10;3.17;;;3.50;99.90;;;;;;4844715;29;20061;-92
2022/01/21 10:54:12;;;;;;;10.38;2.60;;;3.30;99.90;;;;;;4822976;29;20089;-90
2022/01/21 10:57:16;;;;;;;12.73;3.00;;;3.80;99.90;;;;;;4825927;29;20053;-88
2022/01/21 11:00:00;;;;;;;15.20;2.92;;;3.80;99.90;;;;;;4857153;29;20046;-91
2022/01/21 11:02:48;;;;;;;14.30;2.90;;;3.60;99.90;;;;;;4883938;29;20102;-90
2022/01/21 11:05:31;;;;;;;11.67;2.43;;;3.80;99.90;;;;;;4863751;29;20048;-88
2022/01/21 11:08:10;;;;;;;15.60;3.03;;;3.80;99.90;;;;;;4867651;29;20051;-93
2022/01/21 11:10:42;;;;;;;15.67;3.10;;;3.60;99.90;;;;;;4866317;29;20041;-93
2022/01/21 11:13:11;;;;;;;14.10;2.77;;;3.70;99.90;;;;;;4868117;29;20490;-96
2022/01/21 11:15:45;;;;;;;17.17;3.03;;;3.60;99.90;;;;;;4866750;29;20053;-90
2022/01/21 11:18:54;;;;;;;16.47;2.73;;;3.40;99.90;;;;;;4861386;29;20057;-91
2022/01/21 11:21:43;;;;;;;16.03;3.03;;;3.70;99.90;;;;;;4852206;29;20105;-94
2022/01/21 11:24:17;;;;;;;17.50;3.17;;;3.80;99.90;;;;;;4830102;29;20053;-92
2022/01/21 11:27:16;;;;;;;16.75;3.90;;;3.90;99.90;;;;;;4831437;29;20118;-92
2022/01/21 11:29:57;;;;;;;20.17;3.53;;;4.00;99.90;;;;;;4832612;29;20053;-94
2022/01/21 11:32:34;;;;;;;15.13;2.60;;;2.90;99.90;;;;;;4840689;29;20045;-95
2022/01/21 11:35:00;;;;;;;12.83;2.63;;;4.30;99.90;;;;;;4857448;24;20424;-93
2022/01/21 11:37:27;;;;;;;15.00;2.83;;;4.90;99.90;;;;;;4892806;29;20056;-94
2022/01/21 11:39:54;;;;;;;22.80;7.83;;;4.00;99.90;;;;;;4872296;29;20049;-93
2022/01/21 11:42:26;;;;;;;20.17;9.45;;;4.10;99.90;;;;;;4866144;29;20053;-93
2022/01/21 11:45:17;;;;;;;15.20;2.70;;;4.10;99.90;;;;;;4865852;29;20140;-92
2022/01/21 11:51:44;;;;;;;25.33;12.77;;;3.10;99.90;;;;;;4868106;29;20088;-93
2022/01/21 11:54:24;;;;;;;62.40;37.73;;;4.20;99.90;;;;;;4883492;29;20141;-90
2022/01/21 11:57:05;;;;;;;16.83;3.57;;;5.50;99.90;;;;;;4881301;29;20045;-93
2022/01/21 12:06:46;;;;;;;18.97;4.50;;;4.40;99.90;;;;;;4875722;29;20094;-95
2022/01/21 12:10:05;;;;;;;17.37;3.30;;;4.80;99.90;;;;;;4867048;29;20049;-94
2022/01/21 12:12:47;;;;;;;16.53;3.47;;;5.60;99.90;;;;;;4854427;29;20185;-95
2022/01/21 12:15:29;;;;;;;17.97;3.80;;;4.50;99.90;;;;;;4891411;23;20077;-93
2022/01/21 12:18:39;;;;;;;16.83;3.63;;;4.70;99.90;;;;;;4925746;23;20109;-95
2022/01/21 12:25:07;;;;;;;17.90;3.80;;;6.10;99.90;;;;;;4886122;29;20069;-94
2022/01/21 12:28:21;;;;;;;20.97;3.43;;;4.60;99.90;;;;;;4878271;29;20191;-95
2022/01/21 12:31:00;;;;;;;17.20;3.73;;;4.00;99.90;;;;;;4889469;23;20532;-96
2022/01/21 12:34:00;;;;;;;26.30;5.53;;;4.80;99.90;;;;;;4863768;29;20049;-94
2022/01/21 12:36:31;;;;;;;18.97;3.47;;;5.80;99.90;;;;;;4863278;23;20112;-94
2022/01/21 12:41:39;;;;;;;15.77;3.20;;;5.20;99.90;;;;;;4867326;29;20064;-96
2022/01/21 12:44:09;;;;;;;21.13;3.53;;;5.60;99.90;;;;;;4882312;29;20069;-95
2022/01/21 12:46:45;;;;;;;21.80;4.13;;;4.80;99.90;;;;;;4881927;29;20056;-94
2022/01/21 12:49:53;;;;;;;23.33;4.20;;;4.10;99.90;;;;;;4889686;29;20106;-95
2022/01/21 12:58:46;;;;;;;18.67;3.37;;;5.30;99.90;;;;;;4885106;29;20052;-94
2022/01/21 13:01:23;;;;;;;18.80;3.63;;;5.60;99.90;;;;;;4881069;29;20140;-96
2022/01/21 13:04:04;;;;;;;17.37;4.30;;;4.50;99.90;;;;;;4903807;23;20486;-95
2022/01/21 13:11:13;;;;;;;18.87;3.43;;;4.50;99.90;;;;;;4866186;29;20053;-95
2022/01/21 13:14:35;;;;;;;15.77;3.57;;;4.70;99.90;;;;;;5417889;23;21617;-95
2022/01/21 13:17:38;;;;;;;14.13;3.13;;;5.30;99.90;;;;;;5179305;23;20068;-95
2022/01/21 13:20:13;;;;;;;17.87;3.03;;;5.70;99.90;;;;;;4860372;29;20065;-91
2022/01/21 13:22:56;;;;;;;16.67;2.80;;;5.80;99.90;;;;;;4845874;29;20057;-93
2022/01/21 13:25:35;;;;;;;14.95;2.72;;;6.00;99.90;;;;;;4847589;29;20048;-92
2022/01/21 13:28:03;;;;;;;13.13;2.63;;;5.40;99.90;;;;;;4860779;29;20053;-91
2022/01/21 13:30:31;;;;;;;17.77;3.37;;;5.50;99.90;;;;;;4848309;29;20054;-92
2022/01/21 13:35:26;;;;;;;12.30;2.30;;;5.60;99.90;;;;;;4875398;23;20050;-92
2022/01/21 13:38:04;;;;;;;10.00;2.57;;;5.50;99.90;;;;;;4845762;29;20617;-92
2022/01/21 13:40:35;;;;;;;12.53;2.40;;;5.70;99.90;;;;;;4861545;29;20041;-91
2022/01/21 13:43:06;;;;;;;15.30;2.60;;;6.70;99.90;;;;;;4861435;29;20498;-92
2022/01/21 13:45:39;;;;;;;15.53;2.50;;;5.70;99.90;;;;;;4860050;29;20573;-92
2022/01/21 13:48:05;;;;;;;17.40;2.63;;;5.80;99.90;;;;;;4860885;29;20152;-92
2022/01/21 13:50:32;;;;;;;12.40;2.53;;;5.80;99.90;;;;;;4845245;29;20317;-92
2022/01/21 13:53:05;;;;;;;10.60;2.10;;;5.70;99.90;;;;;;4860531;29;20406;-91
2022/01/21 13:55:41;;;;;;;17.55;2.65;;;5.70;99.90;;;;;;4861714;29;20057;-91
2022/01/21 13:58:11;;;;;;;14.63;2.67;;;5.80;99.90;;;;;;4866751;23;20152;-91
2022/01/21 14:00:41;;;;;;;12.47;2.93;;;5.80;99.90;;;;;;4880014;29;20517;-92
2022/01/21 14:06:19;;;;;;;13.07;2.83;;;5.70;99.90;;;;;;4860349;29;20057;-90
2022/01/21 14:08:54;;;;;;;14.30;2.60;;;5.70;99.90;;;;;;4866724;23;20069;-94
2022/01/21 14:11:47;;;;;;;13.63;2.90;;;5.80;99.90;;;;;;4846635;29;20054;-92
2022/01/21 14:14:22;;;;;;;13.60;2.97;;;5.70;99.90;;;;;;4861402;29;20045;-93
2022/01/21 14:46:52;;;;;;;14.40;2.93;;;5.70;99.90;;;;;;4976184;23;20455;-96
2022/01/21 14:49:18;;;;;;;15.07;2.87;;;6.40;99.90;;;;;;4867610;29;20504;-94
2022/01/21 14:57:10;;;;;;;15.07;2.80;;;5.70;99.90;;;;;;4879486;29;20053;-93
2022/01/21 15:00:07;;;;;;;13.70;2.97;;;6.30;99.90;;;;;;4857948;29;20573;-94
2022/01/21 15:02:38;;;;;;;19.63;3.33;;;5.30;99.90;;;;;;4873741;29;20051;-93
2022/01/21 15:05:10;;;;;;;18.27;3.37;;;6.50;99.90;;;;;;4892297;29;20057;-92
2022/01/21 15:07:38;;;;;;;16.60;3.00;;;5.80;99.90;;;;;;4853203;29;20049;-92
2022/01/21 15:10:44;;;;;;;18.13;3.30;;;5.80;99.90;;;;;;4866300;24;20516;-93
2022/01/21 15:19:01;;;;;;;17.83;4.40;;;5.80;99.90;;;;;;4859632;29;20467;-95
2022/01/21 15:22:07;;;;;;;16.83;4.33;;;5.00;99.90;;;;;;4861118;29;20318;-93
2022/01/21 15:24:45;;;;;;;16.17;3.43;;;7.50;99.90;;;;;;4845334;29;20054;-93